Julian Carroll Airport Jackson US
ICAO: KJKL
IATA: JKL
Category: Medium
Scheduled Services: No

Elevation: 1381 ft
TransAlt. 18000 ft.

Airport Communications:
ASOS:118.375
INDIANAPOLIS CNTR:126.57
CTAF/UNICOM:122.8

KJKL Zoom In..

If you have problems with the map follow the link
https://www.worldairports.se/pages/airport.php?
ICAO=KJKL

Runways:

(A) RW 01 length 4400 ft width 75 ft
---- / hdg 12

(B) RW 19 length 4400 ft width 75 ft
---- / hdg 192

Location; KJKL
Day. 14 / Time. 04.50 Zulu
* Altimeter: 29.69
* Temperature: 06° c. 42.8°f.
* Wind from: 000° Speed 00 kn.
Dewpoint: 06° c.
Visibility: 1/4 Statute Miles.
Conditions: Light Rain.Conditions: Fog.

KJKL 140450Z AUTO 00000KT 1/4SM -RA FG VV011 06/06 A2969 RMK AO2 P0005


Wind - Calm.

 
 
jpsmedia worldairports.se 2019   terms of use